Time;durP1;ratioP1;P1;durP2;ratioP2;P2;SDS_P1;SDS_P2;PMS_P1;PMS_P2;Temp;Humidity;BMP_temperature;BMP_pressure;BME280_temperature;BME280_humidity;BME280_pressure;Samples;Min_cycle;Max_cycle;Signal;HPM_P1;HPM_P2
2021/05/05 09:46:04;;;;;;;32.35;31.25;;;;;;;;;;5090933;27;20601;-70
2021/05/05 09:48:30;;;;;;;29.30;28.30;;;;;;;;;;5090852;28;20199;-71
2021/05/05 09:51:00;;;;;;;33.25;32.10;;;;;;;;;;5090869;28;20198;-71
2021/05/05 09:53:27;;;;;;;36.53;35.22;;;;;;;;;;5090839;28;20668;-71
2021/05/05 09:55:59;;;;;;;34.35;33.13;;;;;;;;;;5090711;28;20172;-71
2021/05/05 09:58:30;;;;;;;45.33;43.55;;;;;;;;;;5089440;28;20258;-70
2021/05/05 10:01:11;;;;;;;43.65;41.85;;;;;;;;;;5090659;28;20167;-71
2021/05/05 10:03:36;;;;;;;39.80;37.60;;;;;;;;;;5089268;28;20171;-71
2021/05/05 10:06:18;;;;;;;37.88;36.47;;;;;;;;;;5090573;28;20164;-70
2021/05/05 10:08:44;;;;;;;34.10;32.90;;;;;;;;;;5090503;28;20168;-70
2021/05/05 10:11:10;;;;;;;31.73;30.63;;;;;;;;;;5090142;28;20238;-70
2021/05/05 10:13:37;;;;;;;36.40;35.03;;;;;;;;;;5090492;28;20186;-70
2021/05/05 10:16:03;;;;;;;36.30;34.92;;;;;;;;;;5090415;28;20171;-71
2021/05/05 10:18:29;;;;;;;33.75;32.45;;;;;;;;;;5090371;28;20204;-71
2021/05/05 10:20:55;;;;;;;72.75;67.45;;;;;;;;;;5090363;28;20171;-71
2021/05/05 10:23:21;;;;;;;38.38;36.92;;;;;;;;;;5090316;28;20203;-71
2021/05/05 10:25:50;;;;;;;36.05;34.75;;;;;;;;;;5090097;28;20668;-70
2021/05/05 10:28:17;;;;;;;32.03;30.85;;;;;;;;;;5090194;28;20255;-70
2021/05/05 10:30:43;;;;;;;31.15;30.10;;;;;;;;;;5090113;28;20174;-70
2021/05/05 10:33:24;;;;;;;33.95;32.65;;;;;;;;;;5090037;28;20243;-70
2021/05/05 10:35:50;;;;;;;31.70;30.60;;;;;;;;;;5090017;28;20652;-70
2021/05/05 10:38:42;;;;;;;47.78;45.83;;;;;;;;;;5089995;28;20206;-70
2021/05/05 10:41:12;;;;;;;32.63;31.50;;;;;;;;;;5088627;28;20745;-70
2021/05/05 10:43:47;;;;;;;42.05;40.45;;;;;;;;;;5089601;28;20171;-71
2021/05/05 10:46:27;;;;;;;38.97;37.45;;;;;;;;;;5088517;28;20184;-70
2021/05/05 10:49:06;;;;;;;37.38;35.97;;;;;;;;;;5089751;28;20167;-70
2021/05/05 10:51:44;;;;;;;31.70;30.60;;;;;;;;;;5089705;28;20164;-70
2021/05/05 10:54:11;;;;;;;35.80;34.20;;;;;;;;;;5089627;28;20193;-70
2021/05/05 10:56:37;;;;;;;53.65;51.40;;;;;;;;;;5080756;28;20225;-70
2021/05/05 10:59:08;;;;;;;34.40;33.10;;;;;;;;;;5076056;28;20168;-70
2021/05/05 11:01:38;;;;;;;40.75;39.20;;;;;;;;;;5074788;28;20177;-70
2021/05/05 11:04:06;;;;;;;38.17;36.67;;;;;;;;;;5075927;28;20207;-70
2021/05/05 11:06:32;;;;;;;40.10;38.55;;;;;;;;;;5075975;28;20165;-70
2021/05/05 11:09:11;;;;;;;38.75;37.25;;;;;;;;;;5075820;28;20618;-70
2021/05/05 11:11:41;;;;;;;38.97;37.58;;;;;;;;;;5075848;28;20659;-71
2021/05/05 11:14:07;;;;;;;38.58;37.15;;;;;;;;;;5074499;28;20180;-70
2021/05/05 11:17:02;;;;;;;42.67;41.00;;;;;;;;;;5075738;28;20222;-70
2021/05/05 11:19:42;;;;;;;38.72;37.22;;;;;;;;;;5075674;28;20255;-71
2021/05/05 11:22:09;;;;;;;38.40;36.95;;;;;;;;;;5075668;28;20265;-70
2021/05/05 11:24:39;;;;;;;36.35;34.95;;;;;;;;;;5074292;28;20680;-70
2021/05/05 11:27:07;;;;;;;37.05;35.67;;;;;;;;;;5075536;28;20215;-70
2021/05/05 11:29:34;;;;;;;56.15;53.78;;;;;;;;;;5075515;28;20165;-70
2021/05/05 11:32:01;;;;;;;39.17;37.67;;;;;;;;;;5075510;28;20172;-70
2021/05/05 11:34:27;;;;;;;34.05;32.85;;;;;;;;;;5075436;28;20169;-70
2021/05/05 11:37:00;;;;;;;35.88;34.38;;;;;;;;;;5075313;28;20621;-70
2021/05/05 11:39:27;;;;;;;38.22;36.47;;;;;;;;;;5074023;28;20200;-70
2021/05/05 11:41:57;;;;;;;96.28;91.72;;;;;;;;;;5075248;28;20172;-69
2021/05/05 11:44:36;;;;;;;40.33;38.83;;;;;;;;;;5074998;28;20306;-70
2021/05/05 11:47:04;;;;;;;38.03;36.63;;;;;;;;;;5074186;28;20183;-69
2021/05/05 11:49:31;;;;;;;35.35;34.05;;;;;;;;;;5073994;28;20178;-69
2021/05/05 11:51:57;;;;;;;33.65;32.45;;;;;;;;;;5075191;28;20177;-70
2021/05/05 11:54:28;;;;;;;35.83;34.53;;;;;;;;;;5075075;28;20172;-70
2021/05/05 11:57:04;;;;;;;33.70;32.45;;;;;;;;;;5075021;28;20567;-69
2021/05/05 11:59:30;;;;;;;33.45;32.25;;;;;;;;;;5074975;28;20164;-70
2021/05/05 12:02:03;;;;;;;33.03;31.73;;;;;;;;;;5073620;28;20538;-70
2021/05/05 12:04:29;;;;;;;32.70;31.45;;;;;;;;;;5073527;28;20235;-70
2021/05/05 12:06:56;;;;;;;40.00;38.40;;;;;;;;;;5074564;28;20164;-70
2021/05/05 12:09:29;;;;;;;32.10;31.00;;;;;;;;;;5074134;28;20637;-70
2021/05/05 12:12:30;;;;;;;37.63;36.22;;;;;;;;;;5074734;28;20215;-69
2021/05/05 12:15:15;;;;;;;35.28;33.53;;;;;;;;;;5062676;28;20180;-70
2021/05/05 12:17:47;;;;;;;33.95;32.75;;;;;;;;;;5073268;28;20540;-70
2021/05/05 12:20:13;;;;;;;31.95;30.75;;;;;;;;;;5074686;28;20168;-70
2021/05/05 12:22:56;;;;;;;31.77;30.67;;;;;;;;;;5074502;28;20168;-70
2021/05/05 12:25:29;;;;;;;30.95;29.85;;;;;;;;;;5074357;28;20196;-70
2021/05/05 12:27:58;;;;;;;32.03;30.92;;;;;;;;;;5074473;28;20644;-71
2021/05/05 12:30:24;;;;;;;33.10;31.95;;;;;;;;;;5073045;28;20176;-71
2021/05/05 12:32:52;;;;;;;33.85;32.65;;;;;;;;;;5074296;28;20212;-71
2021/05/05 12:35:22;;;;;;;35.33;34.05;;;;;;;;;;5074138;28;20221;-71
2021/05/05 12:37:48;;;;;;;30.00;29.00;;;;;;;;;;5074152;28;20169;-71
2021/05/05 12:40:15;;;;;;;29.98;28.77;;;;;;;;;;5074110;28;20188;-71
2021/05/05 12:42:41;;;;;;;33.53;32.33;;;;;;;;;;5074086;28;20160;-71
2021/05/05 12:45:12;;;;;;;31.15;29.40;;;;;;;;;;5073826;28;20680;-71
2021/05/05 12:47:39;;;;;;;34.58;33.00;;;;;;;;;;5074156;28;20171;-70
2021/05/05 12:50:06;;;;;;;34.70;33.33;;;;;;;;;;5074000;28;20626;-71
2021/05/05 12:52:34;;;;;;;38.13;36.72;;;;;;;;;;5073981;28;20260;-71
2021/05/05 12:55:01;;;;;;;32.80;31.60;;;;;;;;;;5073914;28;20160;-70
2021/05/05 12:57:27;;;;;;;41.03;39.45;;;;;;;;;;5073842;28;20172;-70
2021/05/05 12:59:54;;;;;;;36.92;35.55;;;;;;;;;;5073824;28;20565;-70
2021/05/05 13:02:25;;;;;;;34.88;33.67;;;;;;;;;;5073722;28;20175;-71
2021/05/05 13:04:52;;;;;;;35.97;34.67;;;;;;;;;;5072309;28;20189;-71
2021/05/05 13:07:27;;;;;;;36.50;35.20;;;;;;;;;;5073724;28;20172;-71
2021/05/05 13:10:09;;;;;;;34.45;33.25;;;;;;;;;;5073742;28;20195;-71
2021/05/05 13:13:12;;;;;;;32.90;31.73;;;;;;;;;;5072330;28;20168;-71
2021/05/05 13:18:27;;;;;;;29.67;28.67;;;;;;;;;;5073607;28;20255;-71
2021/05/05 13:32:35;;;;;;;29.88;28.88;;;;;;;;;;5073520;28;20179;-70
2021/05/05 13:35:21;;;;;;;29.73;28.73;;;;;;;;;;5072016;28;20183;-71
2021/05/05 13:38:07;;;;;;;32.90;31.75;;;;;;;;;;5068311;28;20187;-70
2021/05/05 13:40:36;;;;;;;46.60;44.53;;;;;;;;;;5073229;28;20213;-70
2021/05/05 13:43:06;;;;;;;74.55;71.03;;;;;;;;;;5072017;28;20172;-71
2021/05/05 13:45:35;;;;;;;53.83;51.63;;;;;;;;;;5073186;28;20222;-71
2021/05/05 13:48:13;;;;;;;37.15;35.80;;;;;;;;;;5073180;28;20161;-71
2021/05/05 13:50:39;;;;;;;36.80;35.50;;;;;;;;;;5073215;28;20156;-71
2021/05/05 13:53:06;;;;;;;34.03;32.83;;;;;;;;;;5073168;28;20191;-71
2021/05/05 13:55:32;;;;;;;32.60;31.50;;;;;;;;;;5071797;28;20203;-71
2021/05/05 13:57:58;;;;;;;31.75;30.65;;;;;;;;;;5073185;28;20365;-71
2021/05/05 14:17:38;;;;;;;29.13;28.13;;;;;;;;;;5090913;28;20544;-71
2021/05/05 14:20:08;;;;;;;28.80;27.90;;;;;;;;;;5090882;28;20255;-71
2021/05/05 14:22:34;;;;;;;30.92;29.83;;;;;;;;;;5089455;28;20160;-71
2021/05/05 14:25:03;;;;;;;28.02;27.05;;;;;;;;;;5089494;28;20183;-71
2021/05/05 14:27:29;;;;;;;30.45;29.45;;;;;;;;;;5090746;28;20637;-71
2021/05/05 14:29:55;;;;;;;29.25;28.25;;;;;;;;;;5090700;28;20172;-72
2021/05/05 14:32:21;;;;;;;29.85;28.85;;;;;;;;;;5090683;28;20626;-72
2021/05/05 14:34:47;;;;;;;31.73;30.63;;;;;;;;;;5090675;28;20184;-72
2021/05/05 14:37:13;;;;;;;33.50;32.30;;;;;;;;;;5090492;28;20191;-72
2021/05/05 14:39:39;;;;;;;33.97;32.58;;;;;;;;;;5090530;28;20172;-72
2021/05/05 14:42:11;;;;;;;33.38;31.90;;;;;;;;;;5090535;28;20530;-72
2021/05/05 14:44:45;;;;;;;31.42;30.33;;;;;;;;;;5090509;28;20236;-72
2021/05/05 14:49:55;;;;;;;31.42;30.27;;;;;;;;;;5090633;28;20268;-72
2021/05/05 14:52:23;;;;;;;31.83;30.73;;;;;;;;;;5090339;28;20298;-72
2021/05/05 14:54:49;;;;;;;35.42;34.13;;;;;;;;;;5090331;28;20630;-72
2021/05/05 14:57:19;;;;;;;32.83;31.63;;;;;;;;;;5090245;28;20210;-71
2021/05/05 14:59:45;;;;;;;38.60;37.13;;;;;;;;;;5090223;28;20239;-72
2021/05/05 15:02:10;;;;;;;33.22;31.92;;;;;;;;;;5090050;28;20255;-72
2021/05/05 15:04:36;;;;;;;37.03;35.67;;;;;;;;;;5088796;28;20176;-72
2021/05/05 15:07:03;;;;;;;34.00;32.80;;;;;;;;;;5089910;28;20188;-72
2021/05/05 15:35:56;;;;;;;35.50;34.20;;;;;;;;;;5075868;28;20196;-71
2021/05/05 15:38:29;;;;;;;37.47;35.40;;;;;;;;;;5075945;28;20264;-71
2021/05/05 15:41:04;;;;;;;35.92;34.53;;;;;;;;;;5076188;28;20171;-71
2021/05/05 15:48:25;;;;;;;51.70;49.58;;;;;;;;;;5075995;28;20619;-71
2021/05/05 15:50:51;;;;;;;39.85;38.25;;;;;;;;;;5075793;28;20161;-71
2021/05/05 15:53:22;;;;;;;37.92;36.53;;;;;;;;;;5075697;28;20165;-72
2021/05/05 15:55:52;;;;;;;34.92;33.67;;;;;;;;;;5075567;28;20603;-72
2021/05/05 15:58:21;;;;;;;36.95;35.60;;;;;;;;;;5075663;28;20239;-72
2021/05/05 16:01:10;;;;;;;38.88;37.17;;;;;;;;;;5075514;28;20161;-72
2021/05/05 16:17:04;;;;;;;35.97;34.67;;;;;;;;;;5075023;28;20226;-72
2021/05/05 16:19:34;;;;;;;41.33;39.72;;;;;;;;;;5075208;28;20169;-72
2021/05/05 16:45:59;;;;;;;35.47;34.17;;;;;;;;;;5074813;28;20186;-72
2021/05/05 16:48:24;;;;;;;33.78;32.58;;;;;;;;;;5074081;28;20180;-72
2021/05/05 16:53:45;;;;;;;35.25;33.95;;;;;;;;;;5074320;28;20175;-72
2021/05/05 17:10:02;;;;;;;33.28;31.98;;;;;;;;;;5072299;28;20702;-72
2021/05/05 17:12:28;;;;;;;34.42;33.22;;;;;;;;;;5072550;28;20199;-72
2021/05/05 17:15:03;;;;;;;36.35;35.00;;;;;;;;;;5073812;28;20626;-72
2021/05/05 17:17:43;;;;;;;37.15;35.75;;;;;;;;;;5073718;28;20265;-72
2021/05/05 17:20:16;;;;;;;35.63;34.33;;;;;;;;;;5073966;28;20245;-72
